Time;durP1;ratioP1;P1;durP2;ratioP2;P2;SDS_P1;SDS_P2;PMS_P1;PMS_P2;Temp;Humidity;BMP_temperature;BMP_pressure;BME280_temperature;BME280_humidity;BME280_pressure;Samples;Min_cycle;Max_cycle;Signal;HPM_P1;HPM_P2
2022/06/22 00:01:06;;;;;;;3.60;3.30;;;14.20;99.90;;;;;;5044782;28;20569;-49
2022/06/22 00:03:36;;;;;;;5.00;3.53;;;14.20;99.90;;;;;;5045371;28;20240;-49
2022/06/22 00:06:05;;;;;;;3.93;3.30;;;14.20;99.90;;;;;;5045801;28;20227;-49
2022/06/22 00:08:36;;;;;;;5.60;3.23;;;14.10;99.90;;;;;;5043655;28;20227;-48
2022/06/22 00:11:11;;;;;;;4.60;3.30;;;14.10;99.90;;;;;;5045384;28;20239;-48
2022/06/22 00:13:47;;;;;;;4.10;3.10;;;14.10;99.90;;;;;;5045554;28;20238;-49
2022/06/22 00:16:19;;;;;;;4.27;3.77;;;14.00;99.90;;;;;;5045549;28;20235;-50
2022/06/22 00:18:50;;;;;;;4.60;4.07;;;14.00;99.90;;;;;;5042901;28;20224;-48
2022/06/22 00:21:24;;;;;;;5.07;3.53;;;14.00;99.90;;;;;;5047198;28;20818;-49
2022/06/22 00:23:55;;;;;;;5.93;3.77;;;14.00;99.90;;;;;;5045677;28;20633;-49
2022/06/22 00:26:33;;;;;;;4.60;3.67;;;14.00;99.90;;;;;;5045216;28;21153;-50
2022/06/22 00:29:21;;;;;;;4.07;3.67;;;13.90;99.90;;;;;;5042740;28;20284;-50
2022/06/22 00:32:02;;;;;;;7.33;3.90;;;13.90;99.90;;;;;;5044579;28;20238;-49
2022/06/22 00:34:34;;;;;;;4.37;3.90;;;13.90;99.90;;;;;;5044243;28;20305;-48
2022/06/22 00:37:05;;;;;;;4.83;3.63;;;13.90;99.90;;;;;;5044559;28;20614;-50
2022/06/22 00:39:38;;;;;;;5.73;3.97;;;13.80;99.90;;;;;;5042882;28;20253;-50
2022/06/22 00:42:24;;;;;;;6.17;3.97;;;13.80;99.90;;;;;;5043825;28;20768;-49
2022/06/22 00:44:57;;;;;;;4.17;3.47;;;13.80;99.90;;;;;;5045831;28;20227;-51
2022/06/22 00:47:29;;;;;;;5.53;3.90;;;13.80;99.90;;;;;;5046251;28;20231;-50
2022/06/22 00:50:05;;;;;;;4.53;4.03;;;13.70;99.90;;;;;;5043190;28;20671;-50
2022/06/22 00:52:38;;;;;;;5.73;3.73;;;13.60;99.90;;;;;;5044544;28;20721;-48
2022/06/22 00:55:19;;;;;;;4.67;3.87;;;13.60;99.90;;;;;;5044605;28;20247;-49
2022/06/22 00:57:57;;;;;;;4.80;3.83;;;13.60;99.90;;;;;;5045419;28;20740;-50
2022/06/22 01:00:29;;;;;;;4.23;3.83;;;13.60;99.90;;;;;;5044855;28;20706;-48
2022/06/22 01:03:05;;;;;;;4.57;4.03;;;13.50;99.90;;;;;;5044541;28;20775;-49
2022/06/22 01:05:41;;;;;;;5.50;4.20;;;13.50;99.90;;;;;;5044501;28;20715;-48
2022/06/22 01:08:15;;;;;;;5.77;3.73;;;13.40;99.90;;;;;;5043839;28;20939;-50
2022/06/22 01:10:50;;;;;;;4.50;4.00;;;13.30;99.90;;;;;;5043962;28;20284;-49
2022/06/22 01:13:24;;;;;;;4.47;4.07;;;13.30;99.90;;;;;;5043956;28;20238;-49
2022/06/22 01:15:57;;;;;;;4.07;3.70;;;13.30;99.90;;;;;;5046163;28;20318;-49
2022/06/22 01:18:30;;;;;;;4.30;3.90;;;13.40;99.90;;;;;;5047283;28;20222;-48
2022/06/22 01:21:05;;;;;;;5.13;3.77;;;13.30;99.90;;;;;;5048711;28;21213;-50
2022/06/22 01:24:13;;;;;;;4.93;3.87;;;13.30;99.90;;;;;;5049579;28;20296;-49
2022/06/22 01:27:19;;;;;;;4.17;3.77;;;13.20;99.90;;;;;;5014411;28;20264;-51
2022/06/22 01:29:50;;;;;;;5.67;4.13;;;13.20;99.90;;;;;;5047814;28;20233;-49
2022/06/22 01:32:23;;;;;;;5.93;3.93;;;13.20;99.90;;;;;;5047473;28;20267;-48
2022/06/22 01:34:56;;;;;;;4.50;3.67;;;13.20;99.90;;;;;;5048553;28;20250;-50
2022/06/22 01:37:28;;;;;;;4.47;3.50;;;13.20;99.90;;;;;;5048281;28;20227;-49
2022/06/22 01:40:01;;;;;;;4.93;3.83;;;13.10;99.90;;;;;;5047791;28;20300;-50
2022/06/22 01:42:35;;;;;;;4.47;3.53;;;13.10;99.90;;;;;;5047713;28;20257;-50
2022/06/22 01:45:07;;;;;;;4.70;4.07;;;13.10;99.90;;;;;;5047057;28;20652;-50
2022/06/22 01:47:42;;;;;;;5.27;3.80;;;13.00;99.90;;;;;;5049464;28;20822;-48
2022/06/22 01:50:18;;;;;;;4.23;3.83;;;12.90;99.90;;;;;;5046559;28;20235;-49
2022/06/22 01:53:06;;;;;;;4.33;3.93;;;12.90;99.90;;;;;;5047762;28;20338;-51
2022/06/22 01:55:42;;;;;;;4.27;3.87;;;12.90;99.90;;;;;;5047960;28;20247;-49
2022/06/22 01:58:35;;;;;;;4.00;3.70;;;12.80;99.90;;;;;;5047547;28;20453;-50
2022/06/22 02:01:13;;;;;;;4.30;3.73;;;12.70;99.90;;;;;;5046808;28;20238;-51
2022/06/22 02:03:45;;;;;;;4.00;3.70;;;12.70;99.90;;;;;;5048634;28;20718;-50
2022/06/22 02:09:11;;;;;;;4.53;3.87;;;12.60;99.90;;;;;;5047003;28;20263;-49
2022/06/22 02:11:48;;;;;;;3.80;3.50;;;12.50;99.90;;;;;;5048829;28;20230;-51
2022/06/22 02:14:25;;;;;;;4.17;3.87;;;12.50;99.90;;;;;;5048539;28;20239;-50
2022/06/22 02:16:57;;;;;;;3.70;3.40;;;12.40;99.90;;;;;;5055158;28;20270;-51
2022/06/22 02:19:28;;;;;;;3.93;3.50;;;12.40;99.90;;;;;;5053171;28;20284;-49
2022/06/22 02:21:58;;;;;;;4.43;4.03;;;12.40;99.90;;;;;;5055053;28;20250;-51
2022/06/22 02:24:31;;;;;;;4.50;3.90;;;12.40;99.90;;;;;;5055510;28;20752;-48
2022/06/22 02:27:04;;;;;;;4.60;4.20;;;12.30;99.90;;;;;;5054470;28;20242;-49
2022/06/22 02:29:35;;;;;;;4.93;4.50;;;12.40;99.90;;;;;;5053505;28;20731;-50
2022/06/22 02:32:08;;;;;;;4.37;3.97;;;12.30;99.90;;;;;;5053769;28;20572;-51
2022/06/22 02:34:37;;;;;;;6.07;4.60;;;12.40;99.90;;;;;;5054836;28;20318;-51
2022/06/22 02:37:11;;;;;;;4.80;4.40;;;12.30;99.90;;;;;;5054818;28;20242;-51
2022/06/22 02:39:44;;;;;;;4.40;4.00;;;12.20;99.90;;;;;;5054340;28;20227;-49
2022/06/22 02:45:03;;;;;;;4.63;4.10;;;12.10;99.90;;;;;;5049117;28;20234;-51
2022/06/22 02:47:43;;;;;;;4.37;3.93;;;12.10;99.90;;;;;;5054755;28;20329;-48
2022/06/22 02:50:18;;;;;;;5.67;4.43;;;12.10;99.90;;;;;;5053122;28;20280;-51
2022/06/22 02:52:48;;;;;;;4.73;3.90;;;12.10;99.90;;;;;;5047026;28;20229;-51
2022/06/22 02:55:21;;;;;;;4.47;4.07;;;12.10;99.90;;;;;;5054416;28;20346;-49
2022/06/22 02:57:58;;;;;;;4.40;4.00;;;12.10;99.90;;;;;;5054634;28;20687;-49
2022/06/22 03:00:33;;;;;;;4.60;4.20;;;12.00;99.90;;;;;;5053309;28;20234;-49
2022/06/22 03:03:09;;;;;;;4.57;3.53;;;12.00;99.90;;;;;;5054076;28;20250;-49
2022/06/22 03:05:39;;;;;;;4.70;4.30;;;12.00;99.90;;;;;;5054464;28;20233;-48
2022/06/22 03:08:11;;;;;;;5.17;4.67;;;12.10;99.90;;;;;;5052923;28;20226;-49
2022/06/22 03:10:43;;;;;;;4.87;4.40;;;12.10;99.90;;;;;;5056773;28;20218;-49
2022/06/22 03:13:15;;;;;;;5.67;5.07;;;12.10;99.90;;;;;;5058385;28;20231;-47
2022/06/22 03:15:47;;;;;;;6.60;5.40;;;12.00;99.90;;;;;;5034166;28;20747;-47
2022/06/22 03:18:19;;;;;;;5.97;5.30;;;12.00;99.90;;;;;;5036757;28;20309;-46
2022/06/22 03:20:52;;;;;;;5.77;5.27;;;11.90;99.90;;;;;;5056598;28;20238;-51
2022/06/22 03:23:26;;;;;;;5.53;5.03;;;11.90;99.90;;;;;;5053942;28;20227;-49
2022/06/22 03:26:00;;;;;;;6.37;4.83;;;11.80;99.90;;;;;;5054065;28;20230;-50
2022/06/22 03:28:35;;;;;;;5.37;4.87;;;11.80;99.90;;;;;;5053787;28;20234;-49
2022/06/22 03:31:11;;;;;;;5.23;4.83;;;11.80;99.90;;;;;;5052845;28;20265;-49
2022/06/22 03:33:44;;;;;;;5.27;4.80;;;11.80;99.90;;;;;;5054517;28;20721;-49
2022/06/22 03:36:17;;;;;;;5.57;5.07;;;11.90;99.90;;;;;;5056989;28;20768;-48
2022/06/22 03:38:52;;;;;;;6.00;5.40;;;11.90;99.90;;;;;;5043015;28;20710;-49
2022/06/22 03:41:24;;;;;;;4.87;4.47;;;11.90;99.90;;;;;;5052977;28;20234;-50
2022/06/22 03:43:58;;;;;;;5.43;5.00;;;11.90;99.90;;;;;;5053576;28;20239;-51
2022/06/22 03:46:34;;;;;;;6.37;4.87;;;11.90;99.90;;;;;;5053528;28;20302;-49
2022/06/22 03:49:08;;;;;;;4.97;4.57;;;11.90;99.90;;;;;;5050791;28;20238;-49
2022/06/22 03:51:41;;;;;;;5.07;4.40;;;12.00;99.90;;;;;;5053303;28;20293;-49
2022/06/22 03:54:17;;;;;;;5.17;4.13;;;12.00;99.90;;;;;;5053159;28;20250;-50
2022/06/22 03:56:49;;;;;;;5.27;4.73;;;12.00;99.90;;;;;;5053197;28;20222;-51
2022/06/22 03:59:17;;;;;;;4.93;4.50;;;12.00;99.90;;;;;;5054352;28;20634;-50
2022/06/22 04:01:47;;;;;;;4.63;4.17;;;12.00;99.90;;;;;;5052446;28;20296;-48
2022/06/22 04:04:15;;;;;;;6.83;5.87;;;12.00;99.90;;;;;;5059312;28;20236;-49
2022/06/22 04:06:47;;;;;;;5.53;4.90;;;12.10;99.90;;;;;;5052900;28;20250;-49
2022/06/22 04:09:18;;;;;;;5.50;4.90;;;12.10;99.90;;;;;;5054561;28;20276;-49
2022/06/22 04:11:53;;;;;;;6.00;5.27;;;12.10;99.90;;;;;;5052868;28;20227;-49
2022/06/22 04:14:25;;;;;;;8.17;6.63;;;12.20;99.90;;;;;;5053292;28;20234;-49
2022/06/22 04:17:00;;;;;;;8.10;6.73;;;12.30;99.90;;;;;;5052342;28;20323;-50
2022/06/22 04:19:39;;;;;;;8.53;7.57;;;12.40;99.90;;;;;;5047867;28;20227;-49
2022/06/22 04:22:12;;;;;;;9.07;7.30;;;12.40;99.90;;;;;;5059284;28;20273;-48
2022/06/22 04:24:48;;;;;;;7.37;6.60;;;12.50;99.90;;;;;;5051958;28;20302;-51
2022/06/22 04:27:23;;;;;;;7.73;7.00;;;12.60;99.90;;;;;;5052701;28;20227;-48
2022/06/22 04:29:58;;;;;;;8.67;7.77;;;12.60;99.90;;;;;;5051359;28;20227;-51
2022/06/22 04:32:34;;;;;;;8.93;8.10;;;12.80;99.90;;;;;;5051921;28;20612;-50
2022/06/22 04:35:29;;;;;;;7.60;6.90;;;12.90;99.90;;;;;;5052687;28;20710;-49
2022/06/22 04:38:01;;;;;;;8.73;7.50;;;13.10;99.90;;;;;;5047245;28;20230;-49
2022/06/22 04:40:36;;;;;;;8.87;7.97;;;13.20;99.90;;;;;;5052135;28;20335;-50
2022/06/22 04:43:06;;;;;;;9.03;8.13;;;13.30;99.90;;;;;;5057458;28;20635;-50
2022/06/22 04:45:37;;;;;;;8.57;7.07;;;13.40;99.90;;;;;;5052554;28;20710;-49
2022/06/22 04:48:09;;;;;;;7.07;6.47;;;13.50;99.90;;;;;;5041926;28;20238;-51
2022/06/22 04:50:40;;;;;;;8.13;7.07;;;13.70;99.90;;;;;;5049967;28;20218;-49
2022/06/22 04:53:19;;;;;;;8.47;7.67;;;13.80;99.90;;;;;;5052295;28;20234;-49
2022/06/22 04:55:49;;;;;;;8.47;7.43;;;14.00;99.90;;;;;;5052137;28;20277;-49
2022/06/22 04:58:32;;;;;;;8.63;7.83;;;14.10;99.90;;;;;;5050899;28;20828;-49
2022/06/22 05:01:01;;;;;;;8.63;7.73;;;14.30;99.90;;;;;;5051456;28;20269;-51
2022/06/22 05:03:32;;;;;;;10.57;8.97;;;14.40;99.90;;;;;;5054101;28;20837;-50
2022/06/22 05:06:06;;;;;;;10.23;9.20;;;14.70;99.90;;;;;;5046591;28;20227;-51
2022/06/22 05:08:41;;;;;;;9.50;8.53;;;14.80;99.90;;;;;;5052154;28;20261;-50
2022/06/22 05:11:16;;;;;;;10.97;9.70;;;15.00;99.90;;;;;;5057111;28;20254;-49
2022/06/22 05:13:47;;;;;;;10.70;9.03;;;15.20;99.90;;;;;;5045485;28;20266;-49
2022/06/22 05:16:19;;;;;;;12.73;10.23;;;15.30;99.90;;;;;;5048356;28;20228;-51
2022/06/22 05:18:51;;;;;;;11.63;9.03;;;15.60;99.90;;;;;;5046598;28;20230;-50
2022/06/22 05:21:31;;;;;;;10.60;9.40;;;15.80;99.90;;;;;;5057899;28;20695;-49
2022/06/22 05:24:02;;;;;;;13.00;9.73;;;16.00;99.90;;;;;;5051996;28;20227;-50
2022/06/22 05:26:32;;;;;;;13.70;10.53;;;16.10;99.90;;;;;;5052504;28;20718;-51
2022/06/22 05:29:06;;;;;;;11.33;9.40;;;16.30;99.90;;;;;;5052906;28;20571;-49
2022/06/22 05:31:39;;;;;;;15.57;10.13;;;16.40;99.90;;;;;;5053770;28;20292;-49
2022/06/22 05:34:14;;;;;;;13.30;10.20;;;16.60;99.90;;;;;;5055870;28;20224;-49
2022/06/22 05:36:46;;;;;;;9.93;8.80;;;16.70;99.90;;;;;;5051958;28;20707;-49
2022/06/22 05:39:15;;;;;;;14.23;10.93;;;16.80;99.90;;;;;;5051649;28;20258;-51
2022/06/22 05:41:46;;;;;;;12.23;10.47;;;17.10;99.90;;;;;;5059792;28;20246;-49
2022/06/22 05:44:18;;;;;;;10.70;9.63;;;17.20;99.90;;;;;;5051957;28;20220;-49
2022/06/22 05:46:52;;;;;;;11.83;9.60;;;17.30;99.90;;;;;;5044412;28;20719;-51
2022/06/22 05:49:25;;;;;;;12.83;10.20;;;17.40;99.90;;;;;;5046633;28;20761;-52
2022/06/22 05:51:58;;;;;;;11.60;9.20;;;17.50;99.90;;;;;;5046494;28;20304;-52
2022/06/22 05:54:33;;;;;;;9.50;8.50;;;17.70;99.90;;;;;;5044257;28;20719;-49
2022/06/22 05:57:11;;;;;;;8.93;8.13;;;17.80;99.90;;;;;;5038497;28;20234;-49
2022/06/22 05:59:46;;;;;;;9.43;8.53;;;17.90;99.90;;;;;;5036813;28;20234;-50
2022/06/22 06:02:33;;;;;;;10.97;8.33;;;18.10;99.90;;;;;;5038065;28;20799;-52
2022/06/22 06:05:11;;;;;;;7.70;6.90;;;18.30;99.90;;;;;;5040659;28;20318;-52
2022/06/22 06:07:42;;;;;;;8.17;6.90;;;18.50;99.90;;;;;;5043021;28;20266;-49
2022/06/22 06:10:16;;;;;;;8.23;6.40;;;18.70;99.90;;;;;;5039600;28;20789;-50
2022/06/22 06:12:55;;;;;;;8.77;7.90;;;18.80;99.90;;;;;;5042387;28;20313;-50
2022/06/22 06:15:24;;;;;;;7.20;6.13;;;19.00;99.90;;;;;;5040918;28;20242;-49
2022/06/22 06:17:58;;;;;;;11.07;9.10;;;19.40;99.90;;;;;;5043656;28;20793;-46
2022/06/22 06:20:30;;;;;;;9.70;7.90;;;19.30;99.90;;;;;;5041411;28;20257;-47
2022/06/22 06:23:03;;;;;;;9.53;7.67;;;19.70;99.90;;;;;;5039832;28;20862;-48
2022/06/22 06:28:33;;;;;;;10.63;6.60;;;19.90;99.90;;;;;;5040960;28;21665;-50
2022/06/22 06:31:06;;;;;;;9.37;6.87;;;20.10;99.90;;;;;;5040633;28;20713;-50
2022/06/22 06:33:37;;;;;;;10.77;6.60;;;20.50;99.90;;;;;;5050963;28;20226;-48
2022/06/22 06:36:14;;;;;;;9.43;7.60;;;20.70;99.90;;;;;;5051318;28;20269;-49
2022/06/22 06:38:45;;;;;;;10.83;7.53;;;20.90;99.90;;;;;;5047004;28;20725;-48
2022/06/22 06:41:16;;;;;;;10.53;7.70;;;20.80;99.90;;;;;;5048459;28;20715;-49
2022/06/22 06:43:50;;;;;;;9.73;8.17;;;20.70;99.90;;;;;;5047082;28;20238;-48
2022/06/22 06:46:23;;;;;;;9.03;6.73;;;20.80;99.90;;;;;;5047245;28;20307;-48
2022/06/22 06:48:59;;;;;;;7.87;6.37;;;20.90;99.90;;;;;;5045383;28;20278;-49
2022/06/22 06:51:31;;;;;;;9.97;7.37;;;21.10;99.90;;;;;;5045907;28;20234;-48
2022/06/22 06:54:06;;;;;;;9.50;7.23;;;21.30;99.90;;;;;;5045787;28;20762;-50
2022/06/22 06:56:38;;;;;;;10.10;7.53;;;21.40;99.90;;;;;;5046118;28;20322;-49
2022/06/22 06:59:14;;;;;;;9.50;6.43;;;21.50;99.90;;;;;;5044759;28;20275;-48
2022/06/22 07:01:44;;;;;;;12.17;7.23;;;21.70;99.90;;;;;;5047573;28;20801;-49
2022/06/22 07:04:17;;;;;;;7.93;5.77;;;21.80;99.90;;;;;;5047612;28;20228;-50
2022/06/22 07:06:47;;;;;;;9.37;6.50;;;22.00;99.90;;;;;;5046483;28;20376;-48
2022/06/22 07:09:19;;;;;;;7.73;5.77;;;22.20;99.90;;;;;;5044419;28;20326;-50
2022/06/22 07:11:51;;;;;;;10.87;6.70;;;22.50;99.90;;;;;;5046865;28;20718;-50
2022/06/22 07:14:24;;;;;;;10.10;6.63;;;22.90;99.90;;;;;;5046186;28;20710;-49
2022/06/22 07:16:55;;;;;;;13.53;8.67;;;23.10;99.90;;;;;;5046223;28;20408;-50
2022/06/22 07:19:28;;;;;;;9.03;6.80;;;23.20;99.90;;;;;;5045157;28;20746;-50
2022/06/22 07:22:05;;;;;;;10.33;7.83;;;23.40;99.90;;;;;;5046644;28;20305;-51
2022/06/22 07:24:38;;;;;;;10.43;8.37;;;23.50;99.90;;;;;;5046096;28;20222;-50
2022/06/22 07:27:16;;;;;;;8.83;5.83;;;23.50;99.90;;;;;;5046104;28;20231;-50
2022/06/22 07:29:50;;;;;;;9.60;7.37;;;23.50;99.90;;;;;;5045986;28;20228;-49
2022/06/22 07:32:26;;;;;;;9.13;7.17;;;23.50;99.90;;;;;;5045560;28;21362;-49
2022/06/22 07:35:01;;;;;;;11.70;7.60;;;23.80;99.90;;;;;;5046546;28;20219;-48
2022/06/22 07:37:34;;;;;;;11.47;7.77;;;24.10;99.90;;;;;;5044854;28;20323;-51
2022/06/22 07:40:18;;;;;;;13.53;8.03;;;24.20;99.90;;;;;;5044823;28;20319;-50
2022/06/22 07:42:50;;;;;;;11.60;8.10;;;24.10;99.90;;;;;;5048720;28;20236;-50
2022/06/22 07:45:20;;;;;;;15.27;9.40;;;24.20;99.90;;;;;;5053125;28;20305;-50
2022/06/22 07:47:54;;;;;;;11.67;7.07;;;24.30;99.90;;;;;;5045477;28;20263;-49
2022/06/22 07:50:28;;;;;;;10.40;6.87;;;24.60;99.90;;;;;;5044594;28;20252;-51
2022/06/22 07:53:03;;;;;;;8.93;6.97;;;24.80;99.90;;;;;;5044042;28;20783;-51
2022/06/22 07:55:39;;;;;;;13.17;7.60;;;25.00;99.90;;;;;;5046452;28;20438;-50
2022/06/22 07:58:22;;;;;;;11.00;7.40;;;25.10;99.90;;;;;;5043091;28;20233;-49
2022/06/22 08:00:55;;;;;;;10.17;5.90;;;25.00;99.90;;;;;;5044064;28;20232;-52
2022/06/22 08:03:33;;;;;;;10.77;6.77;;;25.20;99.90;;;;;;5048232;28;20785;-51
2022/06/22 08:06:05;;;;;;;9.17;7.13;;;25.50;99.90;;;;;;5049451;28;20232;-50
2022/06/22 08:08:40;;;;;;;12.57;6.87;;;25.60;99.90;;;;;;5044337;28;20224;-51
2022/06/22 08:11:14;;;;;;;11.47;6.13;;;25.70;99.90;;;;;;5044391;28;20663;-51
2022/06/22 08:13:50;;;;;;;8.50;5.03;;;25.90;99.90;;;;;;5044540;28;20258;-49
2022/06/22 08:16:22;;;;;;;8.87;5.40;;;26.30;99.90;;;;;;5044507;28;20701;-51
2022/06/22 08:18:51;;;;;;;8.87;6.40;;;26.30;99.90;;;;;;5043100;28;20725;-51
2022/06/22 08:21:24;;;;;;;7.17;5.30;;;26.40;99.90;;;;;;5045725;28;20262;-51
2022/06/22 08:23:55;;;;;;;8.20;5.20;;;26.50;99.90;;;;;;5044009;28;20840;-49
2022/06/22 08:26:28;;;;;;;10.37;6.10;;;26.40;99.90;;;;;;5044772;28;20577;-53
2022/06/22 08:28:57;;;;;;;10.87;5.40;;;26.40;99.90;;;;;;5044403;28;20245;-49
2022/06/22 08:31:29;;;;;;;7.43;4.50;;;26.10;99.90;;;;;;5044831;28;20689;-49
2022/06/22 08:34:00;;;;;;;9.63;6.50;;;26.20;99.90;;;;;;5046100;28;20262;-50
2022/06/22 08:36:34;;;;;;;7.07;5.17;;;26.20;99.90;;;;;;5045324;28;20237;-51
2022/06/22 08:39:08;;;;;;;11.40;6.50;;;25.90;99.90;;;;;;5044779;28;20242;-49
2022/06/22 08:41:49;;;;;;;8.50;4.60;;;26.10;99.90;;;;;;5052004;28;20757;-50
2022/06/22 08:44:29;;;;;;;7.53;5.43;;;26.20;99.90;;;;;;5054924;28;20225;-49
2022/06/22 08:47:39;;;;;;;6.93;4.83;;;26.70;99.90;;;;;;5054327;28;20851;-49
2022/06/22 08:50:22;;;;;;;9.67;6.10;;;27.00;99.90;;;;;;5012114;28;20239;-51
2022/06/22 08:53:02;;;;;;;9.40;6.17;;;27.40;99.90;;;;;;5000844;28;21164;-51
2022/06/22 08:56:02;;;;;;;8.63;4.43;;;26.70;99.90;;;;;;5033089;28;20734;-50
2022/06/22 08:58:49;;;;;;;7.40;5.10;;;27.30;99.90;;;;;;5043754;28;20240;-50
2022/06/22 09:01:27;;;;;;;9.23;6.07;;;27.50;99.90;;;;;;5044780;28;20328;-51
2022/06/22 09:04:34;;;;;;;11.33;6.90;;;27.60;99.90;;;;;;5043879;28;20642;-49
2022/06/22 09:07:28;;;;;;;8.63;5.33;;;27.40;99.90;;;;;;5044640;28;20227;-50
2022/06/22 09:10:23;;;;;;;8.33;5.10;;;27.00;99.90;;;;;;5042285;28;20239;-50
2022/06/22 09:13:15;;;;;;;8.97;4.40;;;27.50;99.90;;;;;;5047437;28;20823;-51
2022/06/22 09:15:51;;;;;;;8.00;4.97;;;28.20;99.90;;;;;;5053402;28;20226;-50
2022/06/22 09:18:48;;;;;;;9.87;5.03;;;28.70;99.90;;;;;;5050013;28;20302;-50
2022/06/22 09:21:27;;;;;;;7.53;4.70;;;27.90;99.90;;;;;;5055175;28;20239;-51
2022/06/22 09:24:07;;;;;;;7.87;4.73;;;27.70;99.90;;;;;;5046456;28;20329;-49
2022/06/22 09:26:51;;;;;;;6.03;3.60;;;27.80;99.90;;;;;;5043838;28;20238;-51
2022/06/22 09:29:39;;;;;;;7.57;4.37;;;28.00;99.90;;;;;;5042529;28;20287;-51
2022/06/22 09:32:46;;;;;;;10.43;5.23;;;28.40;99.90;;;;;;5042890;28;20236;-51
2022/06/22 09:35:43;;;;;;;6.67;4.23;;;28.70;99.90;;;;;;5027557;28;20241;-49
2022/06/22 09:38:40;;;;;;;10.57;4.83;;;28.60;99.90;;;;;;5031802;28;20364;-52
2022/06/22 09:41:16;;;;;;;8.87;4.77;;;28.10;99.90;;;;;;5038036;28;20789;-50
2022/06/22 09:44:18;;;;;;;6.13;4.17;;;28.40;99.90;;;;;;5047532;28;20283;-50
2022/06/22 09:47:27;;;;;;;9.90;4.87;;;28.60;99.90;;;;;;5049958;28;20789;-51
2022/06/22 09:50:28;;;;;;;5.67;3.57;;;28.70;99.90;;;;;;5053938;28;20246;-50
2022/06/22 09:53:12;;;;;;;7.37;3.97;;;29.30;99.90;;;;;;5056040;28;20787;-51
2022/06/22 09:59:10;;;;;;;5.07;3.30;;;29.80;99.90;;;;;;5045025;28;20729;-49
2022/06/22 10:01:46;;;;;;;6.90;3.60;;;28.90;99.90;;;;;;5045584;28;20706;-49
2022/06/22 10:04:44;;;;;;;6.87;3.47;;;28.70;99.90;;;;;;5047111;28;20238;-52
2022/06/22 10:07:21;;;;;;;6.70;3.20;;;29.10;99.90;;;;;;5045407;28;21095;-49
2022/06/22 10:10:15;;;;;;;7.10;3.73;;;29.50;99.90;;;;;;5045248;28;20737;-50
2022/06/22 10:13:23;;;;;;;6.53;3.53;;;29.30;99.70;;;;;;5048579;28;20616;-48
2022/06/22 10:16:12;;;;;;;5.70;2.93;;;28.90;99.90;;;;;;5031595;28;20735;-52
2022/06/22 10:18:52;;;;;;;5.90;2.90;;;29.10;99.90;;;;;;5045140;28;20588;-52
2022/06/22 10:21:32;;;;;;;5.17;3.30;;;29.90;99.90;;;;;;5045401;28;20224;-49
2022/06/22 10:24:39;;;;;;;7.53;3.27;;;29.70;99.00;;;;;;5049735;28;20246;-49
2022/06/22 10:27:30;;;;;;;7.33;3.30;;;29.60;99.10;;;;;;5050378;28;20247;-51
2022/06/22 10:30:26;;;;;;;5.37;2.80;;;29.60;98.60;;;;;;5054372;28;20246;-50
2022/06/22 10:33:34;;;;;;;6.70;3.13;;;29.60;99.00;;;;;;5055590;28;20737;-51
2022/06/22 10:36:25;;;;;;;6.83;3.60;;;29.90;98.50;;;;;;5047751;28;20286;-49
2022/06/22 10:39:08;;;;;;;6.13;2.73;;;30.10;97.70;;;;;;5044767;28;20243;-48
2022/06/22 10:45:10;;;;;;;7.27;2.87;;;30.30;98.60;;;;;;5046675;28;20837;-51
2022/06/22 10:48:02;;;;;;;5.17;3.00;;;30.60;96.10;;;;;;5046488;28;20569;-48
2022/06/22 10:50:41;;;;;;;5.20;2.73;;;30.80;96.70;;;;;;5021857;28;20245;-50
2022/06/22 10:53:42;;;;;;;4.80;2.80;;;30.80;96.20;;;;;;5046700;28;20591;-48
2022/06/22 10:56:50;;;;;;;5.07;2.43;;;30.90;95.60;;;;;;5041166;28;20596;-49
2022/06/22 10:59:55;;;;;;;5.73;2.57;;;30.90;96.00;;;;;;4968835;28;20753;-50
2022/06/22 11:03:02;;;;;;;5.17;2.60;;;31.30;94.80;;;;;;5020142;28;20735;-49
2022/06/22 11:05:44;;;;;;;3.77;2.13;;;31.40;93.70;;;;;;5026420;28;20244;-51
2022/06/22 11:08:41;;;;;;;4.43;2.40;;;31.20;95.10;;;;;;5025186;28;20232;-50
2022/06/22 11:11:22;;;;;;;5.13;2.20;;;31.10;94.10;;;;;;5018703;28;20319;-49
2022/06/22 11:14:21;;;;;;;4.57;2.30;;;31.20;94.40;;;;;;5025510;28;20290;-48
2022/06/22 11:17:07;;;;;;;4.50;2.20;;;31.30;94.10;;;;;;5026394;28;20240;-51
2022/06/22 11:20:09;;;;;;;5.50;2.30;;;31.50;93.70;;;;;;5024345;28;20853;-48
2022/06/22 11:22:40;;;;;;;5.13;2.77;;;31.50;93.00;;;;;;5025224;28;20587;-49
2022/06/22 11:31:32;;;;;;;5.50;2.30;;;31.70;92.80;;;;;;5031969;28;20733;-51
2022/06/22 11:34:52;;;;;;;5.60;2.50;;;32.00;92.00;;;;;;5045022;28;20862;-52
2022/06/22 11:37:33;;;;;;;4.13;2.20;;;31.80;92.40;;;;;;5021403;28;21264;-51
2022/06/22 11:40:46;;;;;;;5.13;2.43;;;31.80;92.50;;;;;;5045663;28;20734;-50
2022/06/22 11:43:56;;;;;;;5.23;2.30;;;32.00;91.50;;;;;;5044425;28;20232;-50
2022/06/22 11:46:29;;;;;;;5.43;2.33;;;31.70;90.30;;;;;;5045656;28;20783;-50
2022/06/22 11:49:31;;;;;;;4.07;2.50;;;31.70;92.30;;;;;;5044051;28;20730;-51
2022/06/22 11:52:25;;;;;;;5.10;2.30;;;31.70;91.00;;;;;;5045078;28;20246;-50
2022/06/22 11:55:11;;;;;;;5.57;3.10;;;31.60;91.90;;;;;;5043807;28;20724;-52
2022/06/22 11:58:09;;;;;;;4.20;2.27;;;31.40;92.00;;;;;;5045461;28;20635;-51
2022/06/22 12:00:47;;;;;;;4.47;2.00;;;31.30;91.70;;;;;;5045506;28;20709;-50
2022/06/22 12:03:57;;;;;;;3.33;2.30;;;31.10;91.80;;;;;;5045565;28;20280;-49
2022/06/22 12:06:52;;;;;;;6.77;2.60;;;30.80;92.50;;;;;;5043856;28;20233;-51
2022/06/22 12:09:39;;;;;;;5.87;2.53;;;30.10;92.70;;;;;;5043292;28;20239;-51
2022/06/22 12:12:39;;;;;;;3.67;1.90;;;29.60;92.30;;;;;;5044614;28;20237;-49
2022/06/22 12:15:23;;;;;;;3.63;2.10;;;29.60;93.90;;;;;;5044951;28;20341;-51
2022/06/22 12:18:03;;;;;;;2.97;1.97;;;29.70;92.10;;;;;;5043892;28;20234;-52
2022/06/22 12:20:46;;;;;;;4.80;2.00;;;29.40;92.90;;;;;;5044991;28;20226;-52
2022/06/22 12:23:25;;;;;;;5.37;1.97;;;29.40;93.30;;;;;;5043706;28;20310;-51
2022/06/22 12:26:16;;;;;;;4.00;2.17;;;29.40;92.60;;;;;;5043470;28;20223;-51
2022/06/22 12:29:01;;;;;;;3.30;2.00;;;29.30;91.80;;;;;;5041051;28;20219;-49
2022/06/22 12:31:35;;;;;;;3.83;2.10;;;29.10;92.30;;;;;;5045118;28;20332;-52
2022/06/22 12:34:30;;;;;;;3.90;2.43;;;29.10;92.90;;;;;;5044514;28;20313;-51
2022/06/22 12:37:01;;;;;;;4.57;2.67;;;28.90;93.10;;;;;;5045115;28;20235;-50
2022/06/22 12:39:34;;;;;;;3.67;2.30;;;28.30;93.10;;;;;;5045406;28;20231;-50
2022/06/22 12:42:21;;;;;;;5.20;2.40;;;28.20;94.40;;;;;;5045399;28;20240;-53
2022/06/22 12:45:12;;;;;;;4.07;2.40;;;28.00;94.00;;;;;;5045206;28;20284;-52
2022/06/22 12:48:21;;;;;;;4.73;2.33;;;27.80;93.50;;;;;;5044120;28;20231;-52
2022/06/22 12:51:26;;;;;;;3.10;2.00;;;27.70;94.90;;;;;;5049075;28;20238;-51
2022/06/22 12:54:03;;;;;;;5.10;2.43;;;27.90;95.80;;;;;;5044464;28;20258;-50
2022/06/22 12:56:35;;;;;;;4.23;2.30;;;28.10;93.90;;;;;;5044275;28;20233;-50
2022/06/22 12:59:09;;;;;;;4.27;2.30;;;28.10;94.40;;;;;;5041928;28;20239;-51
2022/06/22 13:01:38;;;;;;;3.90;2.20;;;27.90;94.70;;;;;;5044601;28;20226;-51
2022/06/22 13:04:10;;;;;;;5.57;2.47;;;28.00;95.30;;;;;;5052326;28;20630;-52
2022/06/22 13:06:46;;;;;;;5.70;2.80;;;28.00;95.50;;;;;;5049957;28;20246;-50
2022/06/22 13:09:18;;;;;;;4.60;2.97;;;27.70;94.50;;;;;;5043544;28;20329;-50
2022/06/22 13:11:48;;;;;;;6.07;2.43;;;27.40;94.20;;;;;;5045700;28;20710;-51
2022/06/22 13:14:25;;;;;;;5.90;2.70;;;27.10;95.80;;;;;;5050272;28;20308;-49
2022/06/22 13:17:03;;;;;;;6.47;2.70;;;26.90;95.90;;;;;;5048169;28;20242;-51
2022/06/22 13:19:39;;;;;;;5.23;2.93;;;27.10;96.50;;;;;;5046391;28;20233;-49
2022/06/22 13:22:15;;;;;;;5.37;2.73;;;26.90;96.40;;;;;;5048085;28;20279;-49
2022/06/22 13:25:03;;;;;;;7.67;3.53;;;26.70;96.40;;;;;;5048932;28;20230;-49
2022/06/22 13:27:39;;;;;;;5.67;2.87;;;26.30;96.50;;;;;;5048279;28;20588;-50
2022/06/22 13:30:16;;;;;;;6.50;3.30;;;26.40;97.40;;;;;;5047661;28;20236;-51
2022/06/22 13:32:52;;;;;;;5.60;2.67;;;26.70;96.60;;;;;;5050595;28;20240;-47
2022/06/22 13:35:27;;;;;;;6.63;3.00;;;26.70;96.80;;;;;;5054440;28;20316;-49
2022/06/22 13:38:29;;;;;;;8.53;4.03;;;26.80;96.80;;;;;;5046444;28;20332;-49
2022/06/22 13:41:16;;;;;;;5.70;3.90;;;26.30;96.90;;;;;;5048153;28;20776;-52
2022/06/22 13:43:57;;;;;;;6.20;3.93;;;25.90;97.80;;;;;;5036819;28;20235;-52
2022/06/22 13:46:39;;;;;;;6.57;3.57;;;25.90;98.50;;;;;;5036550;28;20279;-48
2022/06/22 13:49:12;;;;;;;6.07;3.10;;;25.90;98.70;;;;;;5036230;28;20257;-51
2022/06/22 13:51:58;;;;;;;5.60;3.80;;;26.10;98.80;;;;;;5037857;28;20734;-48
2022/06/22 13:55:01;;;;;;;5.57;2.90;;;26.20;99.00;;;;;;5044386;28;20336;-50
2022/06/22 13:57:38;;;;;;;5.80;3.10;;;26.00;98.80;;;;;;5047860;28;20739;-50
2022/06/22 14:00:10;;;;;;;8.60;3.10;;;25.90;99.40;;;;;;5039921;28;20249;-52
2022/06/22 14:03:09;;;;;;;6.53;3.40;;;25.40;99.10;;;;;;5032102;28;20227;-48
2022/06/22 14:05:44;;;;;;;4.43;3.10;;;25.20;99.70;;;;;;5036843;28;20235;-50
2022/06/22 14:08:40;;;;;;;9.60;3.90;;;25.00;99.90;;;;;;5024275;28;20380;-51